Time;durP1;ratioP1;P1;durP2;ratioP2;P2;SDS_P1;SDS_P2;PMS_P1;PMS_P2;Temp;Humidity;BMP_temperature;BMP_pressure;BME280_temperature;BME280_humidity;BME280_pressure;Samples;Min_cycle;Max_cycle;Signal;HPM_P1;HPM_P2
2023/05/15 00:01:06;;;;;;;2.07;1.37;;;13.30;99.90;;;;;;4149648;28;20087;-72
2023/05/15 00:03:07;;;;;;;7.20;2.17;;;13.40;99.90;;;;;;4154101;28;20104;-74
2023/05/15 00:05:08;;;;;;;2.13;1.63;;;13.30;99.90;;;;;;4145144;28;20568;-73
2023/05/15 00:07:09;;;;;;;2.47;1.77;;;13.30;99.90;;;;;;4150716;28;20076;-73
2023/05/15 00:09:11;;;;;;;2.17;1.77;;;13.30;99.90;;;;;;4161236;28;20091;-67
2023/05/15 00:11:12;;;;;;;4.83;1.90;;;13.20;99.90;;;;;;4160538;28;20033;-73
2023/05/15 00:13:13;;;;;;;7.03;2.20;;;13.20;99.90;;;;;;4156564;28;20042;-73
2023/05/15 00:15:14;;;;;;;2.40;1.57;;;13.20;99.90;;;;;;4150526;28;20452;-67
2023/05/15 00:17:16;;;;;;;3.33;1.80;;;13.20;99.90;;;;;;4162653;28;20034;-73
2023/05/15 00:19:17;;;;;;;2.33;1.60;;;13.20;99.90;;;;;;4156708;28;20426;-69
2023/05/15 00:21:18;;;;;;;2.53;2.20;;;13.20;99.90;;;;;;4146205;28;20100;-72
2023/05/15 00:23:19;;;;;;;2.40;1.77;;;13.20;99.90;;;;;;4145462;28;20034;-61
2023/05/15 00:25:20;;;;;;;2.90;1.63;;;13.10;99.90;;;;;;4136134;28;20045;-61
2023/05/15 00:27:21;;;;;;;3.07;1.73;;;13.10;99.90;;;;;;4152121;28;20091;-62
2023/05/15 00:29:23;;;;;;;3.40;1.70;;;13.10;99.90;;;;;;4161433;28;20091;-64
2023/05/15 00:31:24;;;;;;;2.10;1.93;;;13.10;99.90;;;;;;4120014;28;20597;-62
2023/05/15 00:33:25;;;;;;;2.90;2.07;;;13.20;99.90;;;;;;4162552;28;20092;-65
2023/05/15 00:35:26;;;;;;;2.77;1.70;;;13.20;99.90;;;;;;4159622;28;20099;-69
2023/05/15 00:37:27;;;;;;;2.83;2.10;;;13.20;99.90;;;;;;4146238;28;20053;-66
2023/05/15 00:39:28;;;;;;;2.70;1.57;;;13.20;99.90;;;;;;4145135;28;20429;-63
2023/05/15 00:41:31;;;;;;;3.37;1.67;;;13.20;99.90;;;;;;4145561;28;20083;-63
2023/05/15 00:43:33;;;;;;;2.93;1.60;;;13.20;99.90;;;;;;4145448;28;20018;-62
2023/05/15 00:45:37;;;;;;;2.97;2.27;;;13.20;99.90;;;;;;4155303;28;20099;-62
2023/05/15 00:47:41;;;;;;;4.50;2.00;;;13.20;99.90;;;;;;4161914;28;20041;-73
2023/05/15 00:49:43;;;;;;;2.43;2.20;;;13.20;99.90;;;;;;4161552;28;20029;-61
2023/05/15 00:51:44;;;;;;;2.37;2.00;;;13.20;99.90;;;;;;4160211;28;20083;-59
2023/05/15 00:53:46;;;;;;;2.70;2.10;;;13.10;99.90;;;;;;4144826;28;20426;-61
2023/05/15 00:55:50;;;;;;;3.43;1.93;;;13.20;99.90;;;;;;4147833;28;20038;-61
2023/05/15 00:57:52;;;;;;;2.37;2.17;;;13.20;99.90;;;;;;4160396;28;20387;-64
2023/05/15 00:59:55;;;;;;;2.63;2.00;;;13.10;99.90;;;;;;4156196;28;20108;-62
2023/05/15 01:01:56;;;;;;;2.40;1.90;;;13.10;99.90;;;;;;4161101;28;20075;-62
2023/05/15 01:03:58;;;;;;;2.47;2.10;;;13.10;99.90;;;;;;4128340;28;20515;-64
2023/05/15 01:06:00;;;;;;;3.97;2.23;;;13.10;99.90;;;;;;4144753;28;20026;-64
2023/05/15 01:08:35;;;;;;;2.53;1.87;;;13.10;99.90;;;;;;4145308;28;20088;-63
2023/05/15 01:10:36;;;;;;;2.27;2.03;;;13.10;99.90;;;;;;4115896;28;20037;-63
2023/05/15 01:12:40;;;;;;;3.53;1.73;;;13.10;99.90;;;;;;4144310;28;20038;-62
2023/05/15 01:14:41;;;;;;;4.70;1.83;;;13.10;99.90;;;;;;4160443;28;20037;-62
2023/05/15 01:16:42;;;;;;;2.20;2.00;;;13.10;99.90;;;;;;4160402;28;20178;-63
2023/05/15 01:18:44;;;;;;;6.10;2.10;;;13.10;99.90;;;;;;4144192;28;20478;-62
2023/05/15 01:21:00;;;;;;;2.57;1.83;;;13.10;99.90;;;;;;4145655;28;20072;-61
2023/05/15 01:23:32;;;;;;;2.43;1.60;;;13.10;99.90;;;;;;4142186;28;20045;-61
2023/05/15 01:25:52;;;;;;;2.73;2.07;;;13.10;99.90;;;;;;4161664;28;20161;-61
2023/05/15 01:27:57;;;;;;;6.03;1.80;;;13.10;99.90;;;;;;4159553;28;20092;-73
2023/05/15 01:30:21;;;;;;;2.37;1.77;;;13.20;99.90;;;;;;4155625;28;20092;-62
2023/05/15 01:32:56;;;;;;;2.40;1.67;;;13.10;99.90;;;;;;4145536;28;20076;-63
2023/05/15 01:35:05;;;;;;;2.40;1.87;;;13.10;99.90;;;;;;4153766;28;20038;-62
2023/05/15 01:37:09;;;;;;;5.20;2.08;;;13.10;99.90;;;;;;4160164;28;20547;-62
2023/05/15 01:39:13;;;;;;;7.83;2.00;;;13.10;99.90;;;;;;4161552;28;20033;-61
2023/05/15 01:41:22;;;;;;;3.47;1.47;;;13.10;99.90;;;;;;4160718;28;20033;-62
2023/05/15 01:43:27;;;;;;;3.57;1.70;;;13.10;99.90;;;;;;4157562;28;20375;-62
2023/05/15 01:45:30;;;;;;;2.93;1.70;;;13.20;99.90;;;;;;4149938;28;20034;-62
2023/05/15 01:47:36;;;;;;;3.33;1.53;;;13.20;99.90;;;;;;4159075;28;20048;-60
2023/05/15 01:49:39;;;;;;;2.70;1.83;;;13.10;99.90;;;;;;4152147;28;20041;-61
2023/05/15 01:51:43;;;;;;;2.93;1.70;;;13.10;99.90;;;;;;4150691;28;20046;-67
2023/05/15 01:53:45;;;;;;;4.10;1.77;;;13.00;99.90;;;;;;4158071;28;20095;-64
2023/05/15 01:55:49;;;;;;;2.13;1.93;;;13.00;99.90;;;;;;4167205;28;20029;-72
2023/05/15 01:57:51;;;;;;;3.97;1.93;;;13.00;99.90;;;;;;4165952;28;20548;-71
2023/05/15 01:59:54;;;;;;;4.70;1.90;;;12.90;99.90;;;;;;4166906;28;20535;-65
2023/05/15 02:01:57;;;;;;;3.83;1.90;;;12.90;99.90;;;;;;4162999;28;20025;-72
2023/05/15 02:04:00;;;;;;;2.50;1.67;;;12.90;99.90;;;;;;4154482;28;20045;-72
2023/05/15 02:06:03;;;;;;;2.83;2.40;;;12.80;99.90;;;;;;4149657;28;20030;-73
2023/05/15 02:08:04;;;;;;;5.30;1.93;;;12.80;99.90;;;;;;4151339;28;20046;-72
2023/05/15 02:10:07;;;;;;;2.50;1.50;;;12.70;99.90;;;;;;4155430;28;20088;-68
2023/05/15 02:12:09;;;;;;;3.17;1.70;;;12.70;99.90;;;;;;4163849;28;20029;-71
2023/05/15 02:14:13;;;;;;;2.83;1.70;;;12.70;99.90;;;;;;4149367;28;20041;-71
2023/05/15 02:16:14;;;;;;;3.47;1.73;;;12.60;99.90;;;;;;4149955;28;20419;-67
2023/05/15 02:18:16;;;;;;;2.67;2.10;;;12.60;99.90;;;;;;4158716;28;20053;-65
2023/05/15 02:20:17;;;;;;;4.33;2.40;;;12.60;99.90;;;;;;4151992;28;20571;-72
2023/05/15 02:22:18;;;;;;;3.67;1.60;;;12.60;99.90;;;;;;4150537;28;20033;-65
2023/05/15 02:24:19;;;;;;;1.80;1.70;;;12.70;99.90;;;;;;4149256;28;20030;-61
2023/05/15 02:26:42;;;;;;;3.27;1.77;;;12.70;99.90;;;;;;4149951;28;20879;-61
2023/05/15 02:28:49;;;;;;;3.60;2.07;;;12.70;99.90;;;;;;4142996;28;20054;-63
2023/05/15 02:31:09;;;;;;;4.13;2.00;;;12.80;99.90;;;;;;4166451;28;20379;-62
2023/05/15 02:33:28;;;;;;;3.50;1.60;;;12.80;99.90;;;;;;4158374;28;20037;-63
2023/05/15 02:35:35;;;;;;;2.87;1.93;;;12.70;99.90;;;;;;4150964;28;20493;-62
2023/05/15 02:37:41;;;;;;;3.03;1.80;;;12.80;99.90;;;;;;4149316;28;20041;-62
2023/05/15 02:39:44;;;;;;;5.07;2.60;;;12.80;99.90;;;;;;4166031;28;20067;-62
2023/05/15 02:41:46;;;;;;;2.60;2.00;;;12.80;99.90;;;;;;4148204;28;20100;-62
2023/05/15 02:43:50;;;;;;;6.30;2.27;;;12.80;99.90;;;;;;4149791;28;20478;-62
2023/05/15 02:45:52;;;;;;;4.27;1.90;;;12.70;99.90;;;;;;4148759;28;20046;-62
2023/05/15 02:47:53;;;;;;;2.20;2.00;;;12.70;99.90;;;;;;4156033;28;20017;-61
2023/05/15 02:49:56;;;;;;;3.33;1.93;;;12.70;99.90;;;;;;4155320;28;20084;-61
2023/05/15 02:51:57;;;;;;;3.23;2.20;;;12.70;99.90;;;;;;4150353;28;20478;-69
2023/05/15 02:54:00;;;;;;;4.17;2.20;;;12.70;99.90;;;;;;4154282;28;20021;-73
2023/05/15 02:56:01;;;;;;;3.77;1.70;;;12.80;99.90;;;;;;4164007;28;20082;-62
2023/05/15 02:58:03;;;;;;;2.10;1.90;;;12.80;99.90;;;;;;4162702;28;20123;-74
2023/05/15 03:00:07;;;;;;;7.73;2.17;;;12.80;99.90;;;;;;4163916;28;20136;-71
2023/05/15 03:02:09;;;;;;;4.23;1.93;;;12.90;99.90;;;;;;4160496;28;20037;-74
2023/05/15 03:04:10;;;;;;;3.20;2.20;;;12.90;99.90;;;;;;4150637;28;20046;-63
2023/05/15 03:06:11;;;;;;;7.63;1.90;;;12.90;99.90;;;;;;4150290;28;20077;-71
2023/05/15 03:08:12;;;;;;;6.73;2.23;;;12.80;99.90;;;;;;4152474;28;20041;-75
2023/05/15 03:10:13;;;;;;;3.87;1.90;;;12.90;99.90;;;;;;4148919;28;20049;-74
2023/05/15 03:12:15;;;;;;;2.13;1.70;;;12.90;99.90;;;;;;4146252;28;20081;-62
2023/05/15 03:14:16;;;;;;;3.80;2.03;;;12.90;99.90;;;;;;4147562;28;20030;-72
2023/05/15 03:16:17;;;;;;;3.70;2.17;;;12.90;99.90;;;;;;4146416;28;20125;-73
2023/05/15 03:18:18;;;;;;;4.50;1.63;;;12.90;99.90;;;;;;4156350;28;20435;-71
2023/05/15 03:20:19;;;;;;;3.83;1.90;;;12.90;99.90;;;;;;4149264;28;20072;-71
2023/05/15 03:22:21;;;;;;;4.80;2.13;;;12.90;99.90;;;;;;4147375;28;20072;-61
2023/05/15 03:24:22;;;;;;;4.40;2.10;;;12.90;99.90;;;;;;4146839;28;20046;-62
2023/05/15 03:26:23;;;;;;;3.00;1.80;;;12.90;99.90;;;;;;4148190;28;20029;-62
2023/05/15 03:28:24;;;;;;;2.33;1.80;;;13.00;99.90;;;;;;4146007;28;20076;-60
2023/05/15 03:30:25;;;;;;;3.97;1.50;;;13.10;99.90;;;;;;4147470;28;20045;-62
2023/05/15 03:32:26;;;;;;;2.57;1.87;;;13.20;99.90;;;;;;4146350;28;20026;-61
2023/05/15 03:34:27;;;;;;;7.90;1.83;;;13.30;99.90;;;;;;4146773;28;20112;-60
2023/05/15 03:36:28;;;;;;;7.17;1.50;;;13.40;99.90;;;;;;4154425;28;20087;-61
2023/05/15 03:38:30;;;;;;;3.47;1.63;;;13.40;99.90;;;;;;4161947;28;20087;-63
2023/05/15 03:40:31;;;;;;;3.33;2.00;;;13.40;99.90;;;;;;4158018;28;20087;-62
2023/05/15 03:42:32;;;;;;;2.53;1.67;;;13.40;99.90;;;;;;4143630;28;20042;-61
2023/05/15 03:44:33;;;;;;;3.87;1.70;;;13.40;99.90;;;;;;4148713;28;20046;-61
2023/05/15 03:46:34;;;;;;;3.00;1.93;;;13.40;99.90;;;;;;4160540;28;20544;-62
2023/05/15 03:48:36;;;;;;;7.17;2.37;;;13.30;99.90;;;;;;4156072;28;20095;-62
2023/05/15 03:50:38;;;;;;;4.80;3.23;;;13.30;99.90;;;;;;4148158;28;20034;-61
2023/05/15 03:52:39;;;;;;;5.50;1.77;;;13.30;99.90;;;;;;4146742;28;20026;-72
2023/05/15 03:54:41;;;;;;;3.67;2.73;;;13.30;99.90;;;;;;4144567;28;20107;-69
2023/05/15 03:56:43;;;;;;;2.30;1.47;;;13.30;99.90;;;;;;4155377;28;20045;-72
2023/05/15 03:58:44;;;;;;;5.40;1.70;;;13.30;99.90;;;;;;4155966;28;20025;-72
2023/05/15 04:00:45;;;;;;;1.93;1.50;;;13.30;99.90;;;;;;4162762;28;20025;-72
2023/05/15 04:02:47;;;;;;;4.30;2.53;;;13.30;99.90;;;;;;4161890;28;20022;-71
2023/05/15 04:04:48;;;;;;;7.93;2.73;;;13.30;99.90;;;;;;4152258;28;20034;-73
2023/05/15 04:06:50;;;;;;;5.03;1.70;;;13.40;99.90;;;;;;4127422;28;20038;-71
2023/05/15 04:08:51;;;;;;;6.73;1.60;;;13.50;99.90;;;;;;4145312;28;20057;-71
2023/05/15 04:10:53;;;;;;;2.63;1.50;;;13.50;99.90;;;;;;4150801;28;20057;-67
2023/05/15 04:12:54;;;;;;;2.87;1.40;;;13.50;99.90;;;;;;4143899;28;20544;-72
2023/05/15 04:15:15;;;;;;;5.33;2.03;;;13.40;99.90;;;;;;4161399;28;20041;-71
2023/05/15 04:17:17;;;;;;;1.77;1.47;;;13.40;99.90;;;;;;4146581;28;20029;-70
2023/05/15 04:19:18;;;;;;;2.30;1.90;;;13.40;99.90;;;;;;4158340;28;20033;-69
2023/05/15 04:21:20;;;;;;;5.30;1.50;;;13.50;99.90;;;;;;4161038;28;20050;-67
2023/05/15 04:23:21;;;;;;;3.00;1.30;;;13.50;99.90;;;;;;4162365;28;20029;-63
2023/05/15 04:25:23;;;;;;;4.17;1.87;;;13.50;99.90;;;;;;4159272;28;20433;-63
2023/05/15 04:27:25;;;;;;;3.13;1.80;;;13.50;99.90;;;;;;4145996;28;20030;-68
2023/05/15 04:29:26;;;;;;;4.13;1.90;;;13.50;99.90;;;;;;4144819;28;20453;-66
2023/05/15 04:31:27;;;;;;;1.80;1.70;;;13.50;99.90;;;;;;4128275;28;20097;-71
2023/05/15 04:33:28;;;;;;;3.60;1.60;;;13.60;99.90;;;;;;4144917;28;20042;-75
2023/05/15 04:35:29;;;;;;;3.77;2.30;;;13.70;99.90;;;;;;4146151;28;20042;-67
2023/05/15 04:37:31;;;;;;;5.37;1.60;;;13.70;99.90;;;;;;4144356;28;20042;-69
2023/05/15 04:39:32;;;;;;;3.40;1.80;;;13.70;99.90;;;;;;4158651;28;20088;-67
2023/05/15 04:41:33;;;;;;;6.27;2.17;;;13.60;99.90;;;;;;4144467;28;20030;-67
2023/05/15 04:43:34;;;;;;;2.37;2.10;;;13.60;99.90;;;;;;4144603;28;20038;-72
2023/05/15 04:45:36;;;;;;;5.93;1.90;;;13.60;99.90;;;;;;4144956;28;20088;-73
2023/05/15 04:47:37;;;;;;;4.57;1.90;;;13.60;99.90;;;;;;4147595;28;20041;-70
2023/05/15 04:49:41;;;;;;;1.77;1.60;;;13.50;99.90;;;;;;4151503;28;20450;-64
2023/05/15 04:51:42;;;;;;;2.57;1.53;;;13.50;99.90;;;;;;4144127;28;20033;-70
2023/05/15 04:53:43;;;;;;;2.87;1.80;;;13.50;99.90;;;;;;4145915;28;20084;-71
2023/05/15 04:55:44;;;;;;;4.20;1.50;;;13.60;99.90;;;;;;4144874;28;20356;-62
2023/05/15 04:57:46;;;;;;;4.13;1.70;;;13.50;99.90;;;;;;4152089;28;20103;-70
2023/05/15 04:59:47;;;;;;;4.27;1.70;;;13.50;99.90;;;;;;4148076;28;20413;-63
2023/05/15 05:01:50;;;;;;;2.47;1.80;;;13.50;99.90;;;;;;4144538;28;20174;-62
2023/05/15 05:03:51;;;;;;;3.17;1.93;;;13.50;99.90;;;;;;4159783;28;20136;-66
2023/05/15 05:05:52;;;;;;;3.83;1.60;;;13.50;99.90;;;;;;4159772;28;20091;-66
2023/05/15 05:07:54;;;;;;;5.47;1.90;;;13.50;99.90;;;;;;4145008;28;20042;-66
2023/05/15 05:09:55;;;;;;;4.53;1.93;;;13.60;99.90;;;;;;4145198;28;20033;-68
2023/05/15 05:11:58;;;;;;;2.93;2.00;;;13.60;99.90;;;;;;4143650;28;20129;-63
2023/05/15 05:13:59;;;;;;;5.27;2.10;;;13.60;99.90;;;;;;4144658;28;20065;-70
2023/05/15 05:16:00;;;;;;;2.07;1.63;;;13.70;99.90;;;;;;4158280;28;20155;-71
2023/05/15 05:18:01;;;;;;;3.57;2.00;;;13.70;99.90;;;;;;4157589;28;20087;-75
2023/05/15 05:20:03;;;;;;;4.33;1.80;;;13.70;99.90;;;;;;4161271;28;20448;-73
2023/05/15 05:22:05;;;;;;;5.63;3.80;;;13.70;99.90;;;;;;4160592;28;20033;-73
2023/05/15 05:24:06;;;;;;;3.07;2.00;;;13.70;99.90;;;;;;4161553;28;20044;-72
2023/05/15 05:26:07;;;;;;;3.90;1.70;;;13.70;99.90;;;;;;4159112;28;20474;-71
2023/05/15 05:28:08;;;;;;;6.50;1.80;;;13.70;99.90;;;;;;4160666;28;20072;-69
2023/05/15 05:30:10;;;;;;;3.63;2.13;;;13.80;99.90;;;;;;4160250;28;20466;-62
2023/05/15 05:32:11;;;;;;;4.43;2.30;;;13.70;99.90;;;;;;4161003;28;20080;-68
2023/05/15 05:34:12;;;;;;;4.50;2.00;;;13.70;99.90;;;;;;4160379;28;20029;-72
2023/05/15 05:36:13;;;;;;;2.37;1.80;;;13.80;99.90;;;;;;4161464;28;20029;-72
2023/05/15 05:38:14;;;;;;;4.93;1.77;;;13.90;99.90;;;;;;4160209;28;20091;-69
2023/05/15 05:40:16;;;;;;;2.60;1.53;;;14.00;99.90;;;;;;4160558;28;20083;-72
2023/05/15 05:42:17;;;;;;;1.60;1.50;;;14.00;99.90;;;;;;4160141;28;20072;-72
2023/05/15 05:44:18;;;;;;;4.67;2.00;;;14.00;99.90;;;;;;4160963;28;20067;-67
2023/05/15 05:46:19;;;;;;;4.87;1.73;;;14.10;99.90;;;;;;4160687;28;20485;-62
2023/05/15 05:48:21;;;;;;;4.57;2.17;;;14.20;99.90;;;;;;4160387;28;20037;-73
2023/05/15 05:50:22;;;;;;;3.53;2.17;;;14.20;99.90;;;;;;4160816;28;20103;-68
2023/05/15 05:52:23;;;;;;;4.57;1.87;;;14.30;99.90;;;;;;4159546;28;20764;-68
2023/05/15 05:54:24;;;;;;;4.17;2.40;;;14.40;99.90;;;;;;4160826;28;20091;-69
2023/05/15 05:56:26;;;;;;;2.50;2.00;;;14.50;99.90;;;;;;4159966;28;20076;-63
2023/05/15 05:58:27;;;;;;;4.63;2.33;;;14.70;99.90;;;;;;4160306;28;20551;-67
2023/05/15 06:00:28;;;;;;;3.70;2.20;;;14.80;99.90;;;;;;4142614;28;20026;-62
2023/05/15 06:02:29;;;;;;;3.53;2.70;;;15.00;99.90;;;;;;4160954;28;20034;-62
2023/05/15 06:04:32;;;;;;;3.13;1.93;;;15.00;99.90;;;;;;4160105;28;20042;-67
2023/05/15 06:06:34;;;;;;;3.05;1.70;;;15.00;99.90;;;;;;4161325;28;20069;-71
2023/05/15 06:08:35;;;;;;;4.20;2.27;;;14.90;99.90;;;;;;4160095;28;20029;-71
2023/05/15 06:10:36;;;;;;;2.85;2.05;;;14.90;99.90;;;;;;4143300;28;20525;-69
2023/05/15 06:12:38;;;;;;;3.93;2.20;;;15.00;99.90;;;;;;4158875;28;20037;-73
2023/05/15 06:14:39;;;;;;;5.07;1.70;;;15.20;99.90;;;;;;4160353;28;20473;-68
2023/05/15 06:16:40;;;;;;;5.75;2.22;;;15.50;99.90;;;;;;4160264;28;20074;-71
2023/05/15 06:18:41;;;;;;;5.68;2.08;;;15.70;99.90;;;;;;4160849;28;20060;-71
2023/05/15 06:20:42;;;;;;;5.00;2.00;;;15.90;99.60;;;;;;4160783;28;20025;-72
2023/05/15 06:22:43;;;;;;;3.30;1.50;;;15.80;99.50;;;;;;4160173;28;20037;-73
2023/05/15 06:24:44;;;;;;;4.80;3.00;;;15.70;99.80;;;;;;4161070;28;20088;-74
2023/05/15 06:26:46;;;;;;;4.65;2.10;;;15.70;99.70;;;;;;4159881;28;20030;-72
2023/05/15 06:28:47;;;;;;;5.03;1.70;;;15.70;99.80;;;;;;4161099;28;20037;-66
2023/05/15 06:30:48;;;;;;;3.05;1.70;;;15.80;99.60;;;;;;4162318;28;20037;-73
2023/05/15 06:32:49;;;;;;;3.30;1.85;;;15.70;99.50;;;;;;4164256;28;20091;-73
2023/05/15 06:34:50;;;;;;;4.40;1.65;;;15.60;99.60;;;;;;4163223;28;20064;-73
2023/05/15 06:36:52;;;;;;;10.63;2.35;;;15.50;99.60;;;;;;4164028;28;20033;-69
2023/05/15 06:38:53;;;;;;;14.48;3.25;;;15.60;99.60;;;;;;4162373;28;20448;-72
2023/05/15 06:40:54;;;;;;;3.38;1.70;;;15.70;99.80;;;;;;4164278;28;20370;-72
2023/05/15 06:42:55;;;;;;;5.68;1.60;;;15.70;99.60;;;;;;4162141;28;20091;-72
2023/05/15 06:44:56;;;;;;;2.92;1.70;;;15.80;99.60;;;;;;4163773;28;20075;-73
2023/05/15 06:46:58;;;;;;;3.88;1.98;;;15.90;99.60;;;;;;4163223;28;20029;-72
2023/05/15 06:48:59;;;;;;;8.13;2.65;;;16.00;99.50;;;;;;4163852;28;20037;-72
2023/05/15 06:51:00;;;;;;;2.72;1.60;;;16.00;99.80;;;;;;4162785;28;20061;-70
2023/05/15 06:53:02;;;;;;;2.00;1.80;;;16.00;99.40;;;;;;4162961;28;20033;-73
2023/05/15 06:55:03;;;;;;;2.15;1.35;;;16.00;99.50;;;;;;4163730;28;20127;-72
2023/05/15 06:57:04;;;;;;;6.20;2.08;;;16.00;99.50;;;;;;4161978;28;20476;-72
2023/05/15 06:59:05;;;;;;;2.88;1.58;;;16.10;99.60;;;;;;4163495;28;20079;-74
2023/05/15 07:01:08;;;;;;;3.00;1.95;;;16.10;99.60;;;;;;4162783;28;20037;-70
2023/05/15 07:03:09;;;;;;;2.78;1.40;;;16.20;99.60;;;;;;4163894;28;20034;-72
2023/05/15 07:05:10;;;;;;;3.65;1.30;;;16.30;99.20;;;;;;4162603;28;20041;-69
2023/05/15 07:07:11;;;;;;;2.13;1.63;;;16.40;98.50;;;;;;4163409;28;20041;-71
2023/05/15 07:09:12;;;;;;;1.92;1.80;;;16.70;98.50;;;;;;4162352;28;20044;-71
2023/05/15 07:11:13;;;;;;;9.30;2.55;;;17.10;98.50;;;;;;4163613;28;20030;-73
2023/05/15 07:13:20;;;;;;;4.65;1.67;;;17.40;98.20;;;;;;4161618;28;20531;-73
2023/05/15 07:15:21;;;;;;;2.78;1.13;;;17.70;96.50;;;;;;4162775;28;20128;-74
2023/05/15 07:17:23;;;;;;;2.53;0.98;;;18.00;95.90;;;;;;4162012;28;20123;-73
2023/05/15 07:19:24;;;;;;;2.45;1.08;;;18.10;95.50;;;;;;4163334;28;20079;-73
2023/05/15 07:21:25;;;;;;;1.98;0.90;;;18.10;95.40;;;;;;4162862;28;20453;-73
2023/05/15 07:23:26;;;;;;;2.47;1.60;;;18.10;95.40;;;;;;4162556;28;20098;-74
2023/05/15 07:25:27;;;;;;;4.13;1.52;;;17.90;95.00;;;;;;4163025;28;20128;-74
2023/05/15 07:27:28;;;;;;;4.22;1.55;;;17.60;95.20;;;;;;4162033;28;20061;-70
2023/05/15 07:29:29;;;;;;;4.90;1.60;;;17.40;95.60;;;;;;4163247;28;20107;-73
2023/05/15 07:31:32;;;;;;;4.05;1.40;;;17.40;95.60;;;;;;4161453;28;20041;-73
2023/05/15 07:33:33;;;;;;;6.03;1.85;;;17.40;95.80;;;;;;4163348;28;20095;-68
2023/05/15 07:35:34;;;;;;;6.05;2.30;;;17.50;95.80;;;;;;4161433;28;20883;-69
2023/05/15 07:37:35;;;;;;;2.90;1.40;;;17.50;95.90;;;;;;4145089;28;20038;-71
2023/05/15 07:39:37;;;;;;;2.70;1.60;;;17.60;95.70;;;;;;4161349;28;20409;-72
2023/05/15 07:41:38;;;;;;;5.75;1.48;;;17.70;95.70;;;;;;4162107;28;20026;-71
2023/05/15 07:43:39;;;;;;;7.88;1.58;;;17.80;95.60;;;;;;4161077;28;20187;-72
2023/05/15 07:45:40;;;;;;;3.05;1.33;;;17.90;95.10;;;;;;4162307;28;20037;-72
2023/05/15 07:47:45;;;;;;;3.13;1.42;;;18.10;95.00;;;;;;4162325;28;20435;-72
2023/05/15 07:49:47;;;;;;;4.20;1.05;;;18.00;94.40;;;;;;4162122;28;20053;-73
2023/05/15 07:51:48;;;;;;;3.35;1.70;;;18.00;94.70;;;;;;4162271;28;20029;-69
2023/05/15 07:53:49;;;;;;;3.65;1.52;;;18.20;94.90;;;;;;4161919;28;20095;-73
2023/05/15 07:55:50;;;;;;;3.08;1.23;;;18.20;94.70;;;;;;4144166;28;20042;-73
2023/05/15 07:57:52;;;;;;;4.82;1.60;;;18.30;94.70;;;;;;4127153;28;20109;-72
2023/05/15 07:59:53;;;;;;;3.60;1.35;;;18.40;94.60;;;;;;4146315;28;20030;-74
2023/05/15 08:01:54;;;;;;;5.45;1.48;;;18.60;94.40;;;;;;4145301;28;20064;-73
2023/05/15 08:03:56;;;;;;;4.60;1.63;;;18.70;94.40;;;;;;4146280;28;20037;-72
2023/05/15 08:05:58;;;;;;;2.67;1.63;;;18.70;94.20;;;;;;4145104;28;20429;-69
2023/05/15 08:07:59;;;;;;;3.10;1.48;;;18.70;94.20;;;;;;4146488;28;20072;-73
2023/05/15 08:10:03;;;;;;;3.42;1.50;;;18.70;94.40;;;;;;4145092;28;20049;-70
2023/05/15 08:12:21;;;;;;;5.95;1.50;;;18.50;94.30;;;;;;4146211;28;20963;-68
2023/05/15 08:14:22;;;;;;;3.47;1.33;;;18.50;94.30;;;;;;4144941;28;20306;-71
2023/05/15 08:16:23;;;;;;;3.47;1.60;;;18.40;94.40;;;;;;4146167;28;20529;-73
2023/05/15 08:18:24;;;;;;;5.53;2.33;;;18.50;94.30;;;;;;4145282;28;20068;-72
2023/05/15 08:20:25;;;;;;;3.95;1.85;;;18.50;94.30;;;;;;4146107;28;20441;-75
2023/05/15 08:22:29;;;;;;;3.38;2.03;;;18.40;94.50;;;;;;4144934;28;20034;-72
2023/05/15 08:24:30;;;;;;;6.13;2.25;;;18.40;94.70;;;;;;4145734;28;20096;-74
2023/05/15 08:26:32;;;;;;;2.28;1.23;;;18.40;94.80;;;;;;4145140;28;20021;-72
2023/05/15 08:28:33;;;;;;;3.08;1.50;;;18.50;94.80;;;;;;4145326;28;20470;-72
2023/05/15 08:30:34;;;;;;;3.33;1.58;;;18.50;94.90;;;;;;4145087;28;20038;-72
2023/05/15 08:32:36;;;;;;;4.72;1.40;;;18.50;95.10;;;;;;4144899;28;20030;-72
2023/05/15 08:34:37;;;;;;;2.30;1.27;;;18.50;95.20;;;;;;4145728;28;20083;-69
2023/05/15 08:36:38;;;;;;;2.97;1.50;;;18.50;95.20;;;;;;4144768;28;20076;-74
2023/05/15 08:38:39;;;;;;;3.78;1.38;;;18.50;95.40;;;;;;4144089;28;20090;-73
2023/05/15 08:40:45;;;;;;;6.90;1.60;;;18.50;95.40;;;;;;4144022;28;20088;-74
2023/05/15 08:42:53;;;;;;;5.05;1.65;;;18.50;95.40;;;;;;4145482;28;20394;-67
2023/05/15 08:44:55;;;;;;;4.13;1.52;;;18.50;95.80;;;;;;4144460;28;20282;-71
2023/05/15 08:46:57;;;;;;;2.33;1.80;;;18.50;95.60;;;;;;4145562;28;20154;-69
2023/05/15 08:49:00;;;;;;;5.32;1.38;;;18.50;95.50;;;;;;4144816;28;20038;-72
2023/05/15 08:51:02;;;;;;;3.25;1.95;;;18.50;95.50;;;;;;4145280;28;20119;-69
2023/05/15 08:53:04;;;;;;;3.35;1.58;;;18.50;95.60;;;;;;4144208;28;20041;-72
2023/05/15 08:55:05;;;;;;;3.60;1.75;;;18.50;95.70;;;;;;4144162;28;20072;-73
2023/05/15 08:57:08;;;;;;;3.20;1.67;;;18.50;95.90;;;;;;4147787;28;20057;-70
2023/05/15 08:59:09;;;;;;;4.85;1.63;;;18.60;95.80;;;;;;4161657;28;20033;-74
2023/05/15 09:01:12;;;;;;;4.32;1.48;;;18.60;96.00;;;;;;4160541;28;20465;-73
2023/05/15 09:03:18;;;;;;;5.35;2.15;;;18.70;95.90;;;;;;4161142;28;20428;-73
2023/05/15 09:05:19;;;;;;;6.35;1.55;;;18.60;95.80;;;;;;4161036;28;20152;-72
2023/05/15 09:07:20;;;;;;;3.45;1.25;;;18.60;95.50;;;;;;4160219;28;20037;-73
2023/05/15 09:09:23;;;;;;;5.47;1.52;;;18.50;95.70;;;;;;4160562;28;20049;-72
2023/05/15 09:11:25;;;;;;;2.13;1.48;;;18.50;95.60;;;;;;4159598;28;20045;-72
2023/05/15 09:13:26;;;;;;;6.53;1.50;;;18.60;95.70;;;;;;4160992;28;20029;-72
2023/05/15 09:15:29;;;;;;;5.32;1.95;;;18.60;95.70;;;;;;4160319;28;20033;-68
2023/05/15 09:17:30;;;;;;;9.63;1.45;;;18.60;95.60;;;;;;4161285;28;20048;-69
2023/05/15 09:19:33;;;;;;;5.85;1.88;;;18.60;95.60;;;;;;4160583;28;20115;-69
2023/05/15 09:21:34;;;;;;;2.55;1.23;;;18.70;95.60;;;;;;4161496;28;20034;-70
2023/05/15 09:23:35;;;;;;;11.52;1.42;;;18.80;95.40;;;;;;4160213;28;20107;-66
2023/05/15 09:25:39;;;;;;;2.35;1.52;;;18.80;95.30;;;;;;4160754;28;20041;-70
2023/05/15 09:27:42;;;;;;;4.63;1.52;;;18.80;95.30;;;;;;4160209;28;20029;-73
2023/05/15 09:29:44;;;;;;;5.65;1.60;;;18.80;95.50;;;;;;4160926;28;20037;-75
2023/05/15 09:31:46;;;;;;;6.28;1.40;;;18.90;95.40;;;;;;4160417;28;20037;-73
2023/05/15 09:33:59;;;;;;;2.78;1.30;;;18.90;95.40;;;;;;4161381;28;20083;-73
2023/05/15 09:36:02;;;;;;;4.47;1.40;;;19.00;95.60;;;;;;4160300;28;20025;-74
2023/05/15 09:38:09;;;;;;;5.35;1.55;;;19.00;95.80;;;;;;4160917;28;20067;-72
2023/05/15 09:40:12;;;;;;;4.20;1.55;;;19.20;95.80;;;;;;4160014;28;20041;-74
2023/05/15 09:42:14;;;;;;;6.68;1.73;;;19.20;95.70;;;;;;4160923;28;20370;-73
2023/05/15 09:44:26;;;;;;;3.65;1.23;;;19.30;95.70;;;;;;4160565;28;20107;-73
2023/05/15 09:46:27;;;;;;;7.18;1.50;;;19.40;95.80;;;;;;4160824;28;20428;-74
2023/05/15 09:48:29;;;;;;;5.03;1.80;;;19.40;95.90;;;;;;4161107;28;20083;-73
2023/05/15 09:50:35;;;;;;;4.40;1.58;;;19.40;95.90;;;;;;4160399;28;20068;-73
2023/05/15 09:52:38;;;;;;;6.85;1.70;;;19.50;95.70;;;;;;4160852;28;20030;-73
2023/05/15 09:54:39;;;;;;;5.80;1.55;;;19.50;95.70;;;;;;4160269;28;20030;-72
2023/05/15 09:56:44;;;;;;;5.50;1.60;;;19.60;95.70;;;;;;4160719;28;20744;-72
2023/05/15 09:58:56;;;;;;;6.85;1.63;;;19.60;95.50;;;;;;4142213;28;20112;-73
2023/05/15 10:00:59;;;;;;;6.82;1.45;;;19.60;95.50;;;;;;4161100;28;20091;-73
2023/05/15 10:03:03;;;;;;;6.97;1.98;;;19.60;95.40;;;;;;4159948;28;20063;-68
2023/05/15 10:05:04;;;;;;;3.65;1.30;;;19.60;95.20;;;;;;4163340;28;20476;-70
2023/05/15 10:07:08;;;;;;;5.13;1.20;;;19.60;95.20;;;;;;4162885;28;20087;-74
2023/05/15 10:09:10;;;;;;;4.45;1.50;;;19.60;95.30;;;;;;4164003;28;20079;-71
2023/05/15 10:11:11;;;;;;;2.25;1.05;;;19.70;95.10;;;;;;4162917;28;20424;-72
2023/05/15 10:13:12;;;;;;;4.90;1.60;;;19.70;95.10;;;;;;4163637;28;20371;-72
2023/05/15 10:15:14;;;;;;;5.10;1.40;;;19.70;95.20;;;;;;4162380;28;20050;-73
2023/05/15 10:17:17;;;;;;;3.35;1.65;;;19.70;95.20;;;;;;4164150;28;20657;-64
2023/05/15 10:19:22;;;;;;;3.80;1.27;;;19.80;95.00;;;;;;4163199;28;20025;-71
2023/05/15 10:21:25;;;;;;;3.25;1.50;;;19.80;95.00;;;;;;4163308;28;20111;-72
2023/05/15 10:23:27;;;;;;;2.17;1.40;;;19.80;94.90;;;;;;4162739;28;20355;-67
2023/05/15 10:25:51;;;;;;;6.95;1.52;;;19.80;94.90;;;;;;4163300;28;20103;-74
2023/05/15 10:27:53;;;;;;;5.90;1.60;;;19.80;95.00;;;;;;4144696;28;20034;-67
2023/05/15 10:29:56;;;;;;;3.72;1.15;;;19.80;95.00;;;;;;4163397;28;20049;-74
2023/05/15 10:31:59;;;;;;;8.63;1.77;;;19.90;95.10;;;;;;4162739;28;20091;-74
2023/05/15 10:34:04;;;;;;;4.18;1.40;;;20.00;95.20;;;;;;4163091;28;20498;-74
2023/05/15 10:36:07;;;;;;;5.05;1.38;;;20.10;95.30;;;;;;4163416;28;20568;-73
2023/05/15 10:38:10;;;;;;;9.98;1.98;;;20.20;95.20;;;;;;4163358;28;20030;-64